Latest Coastal Weather Observations for Eucla

IDS60701

Issued at 1:11 pm CDT Tuesday 21 February 2017 (issued every 10 minutes, with the page automatically refreshed every 10 minutes)

About coastal observations | Map of coastal stations | Coastal observations for SA | Marine services | Other Formats
Station Details ID: 011003 Name: EUCLA Lat: -31.68 Lon: 128.90 Height: 93.1 m
Data from the previous 72 hours. | See also: Recent months at Eucla
Date/Time
CDT
Temp
°C
Wind Pressure Rain since
9am
mm
Weather Cloud Vis
km
Sea
Height
m
Swell
Dir  Spd
kts
Gust
kts
hPa Trend Height
m
Period
s
Dir
21/01:00pm 34.2 N 15 22 1006.1 - 0.0 - - - - - - -
21/12:35pm 35.0 N 15 25 1006.6 - 0.0 - - - - - - -
21/12:30pm 35.7 N 17 26 1006.7 - 0.0 - - - - - - -
21/12:00pm 33.2 N 16 26 1007.3 - 0.0 - - - - - - -
21/11:44am 32.7 N 15 27 1007.5 - 0.0 - - - - - - -
21/11:30am 31.4 N 16 25 1007.8 - 0.0 Fine Mostly cloudy 40 - - - -
21/11:00am 29.2 N 15 22 1008.2 - 0.0 - - - - - - -
21/10:30am 27.6 N 15 22 1008.7 - 0.0 - - - - - - -
21/10:00am 25.4 N 14 20 1009.0 - 0.0 - - - - - - -
21/09:30am 21.8 NNE 14 20 1009.3 - 0.0 - - - - - - -
21/09:00am 19.6 NNE 14 20 1009.7 - 0.0 - - - - - - -
21/08:30am 16.9 NNE 13 20 1010.0 - 0.0 - - - - - - -
21/08:00am 15.5 NNE 13 18 1009.9 - 0.0 - - - - - - -
21/07:30am 15.3 NNE 12 16 1010.1 - 0.0 - - - - - - -
21/07:00am 15.3 NNE 12 16 1010.1 - 0.0 - - - - - - -
21/06:30am 15.4 NNE 12 17 1010.1 - 0.0 - - - - - - -
21/06:00am 15.8 NNE 12 20 1010.2 - 0.0 - - - - - - -
21/05:30am 16.1 NNE 13 18 1010.4 - 0.0 - - - - - - -
21/05:00am 16.3 NNE 12 17 1010.5 - 0.0 - - - - - - -
21/04:30am 16.5 NNE 12 18 1010.6 - 0.0 - - - - - - -
21/04:00am 16.3 NNE 11 16 1011.1 - 0.0 - - - - - - -
21/03:30am 16.4 NNE 11 16 1011.3 - 0.0 - - - - - - -
21/03:00am 16.6 NE 11 15 1011.4 - 0.0 - - - - - - -
21/02:30am 16.5 NE 11 17 1011.6 - 0.0 - - - - - - -
21/02:00am 16.3 NE 10 17 1011.9 - 0.0 - - - - - - -
21/01:30am 16.2 NE 10 14 1012.2 - 0.0 - - - - - - -
21/01:00am 16.2 NE 8 13 1012.5 - 0.0 - - - - - - -
21/12:30am 16.8 NE 9 13 1012.7 - 0.0 - - - - - - -
21/12:00am 17.0 NE 9 13 1013.3 - 0.0 - - - - - - -
 
Date/Time
CDT
Temp
°C
Wind Pressure Rain since
9am
mm
Weather Cloud Vis
km
Sea
Height
m
Swell
Dir  Spd
kts
Gust
kts
hPa Trend Height
m
Period
s
Dir
20/11:30pm 17.3 NE 9 14 1013.8 - 0.0 - - - - - - -
20/11:00pm 17.5 ENE 9 14 1014.0 - 0.0 - - - - - - -
20/10:30pm 17.9 ENE 10 14 1013.9 - 0.0 - - - - - - -
20/10:00pm 18.2 ENE 11 16 1013.8 - 0.0 - - - - - - -
20/09:30pm 18.5 E 11 18 1013.7 - 0.0 - - - - - - -
20/09:00pm 18.8 E 10 16 1013.6 - 0.0 - - - - - - -
20/08:30pm 19.2 E 11 18 1013.7 - 0.0 - - - - - - -
20/08:00pm 19.9 E 12 18 1013.6 - 0.0 - - - - - - -
20/07:30pm 20.7 E 13 20 1013.4 - 0.0 - - - - - - -
20/07:00pm 21.3 E 13 19 1013.6 - 0.0 - - - - - - -
20/06:30pm 21.5 E 13 19 1013.6 - 0.0 - - - - - - -
20/06:00pm 21.9 ESE 12 18 1013.7 - 0.0 - - - - - - -
20/05:30pm 22.0 ESE 13 18 1013.6 - 0.0 Fine Clear 40 - - - -
20/05:00pm 22.2 ESE 14 19 1013.7 - 0.0 - - - - - - -
20/04:30pm 22.5 ESE 12 18 1014.0 - 0.0 - - - - - - -
20/04:00pm 23.2 ESE 12 19 1014.2 - 0.0 - - - - - - -
20/03:30pm 23.6 SE 12 17 1014.4 - 0.0 - - - - - - -
20/03:00pm 23.1 ESE 12 16 1014.8 - 0.0 - - - - - - -
20/02:30pm 23.1 SE 11 16 1015.2 - 0.0 - - - - - - -
20/02:00pm 23.7 ESE 13 16 1015.6 - 0.0 - - - - - - -
20/01:30pm 23.8 SE 11 16 1015.9 - 0.0 - - - - - - -
20/01:00pm 24.7 NNW 5 9 1016.3 - 0.0 - - - - - - -
20/12:30pm 24.6 NNW 7 11 1016.9 - 0.0 - - - - - - -
20/12:00pm 23.3 NNE 7 11 1017.3 - 0.0 - - - - - - -
20/11:30am 21.8 NNE 7 11 1018.0 - 0.0 Fine Clear 40 - - - -
20/11:00am 20.9 NNE 9 14 1018.4 - 0.0 - - - - - - -
20/10:30am 19.5 NNE 11 16 1018.3 - 0.0 - - - - - - -
20/10:00am 18.5 NNE 13 18 1017.9 - 0.0 - - - - - - -
20/09:30am 16.6 NNE 10 14 1018.2 - 0.0 - - - - - - -
20/09:00am 14.7 NNE 9 14 1018.3 - 0.0 - - - - - - -
20/08:30am 12.5 NNE 9 12 1018.3 - 0.0 - - - - - - -
20/08:00am 10.8 NNE 8 11 1018.0 - 0.0 - - - - - - -
20/07:30am 10.5 NNE 9 11 1017.8 - 0.0 - - - - - - -
20/07:00am 10.4 NNE 8 10 1017.9 - 0.0 - - - - - - -
20/06:30am 10.2 NNE 6 8 1018.1 - 0.0 - - - - - - -
20/06:00am 10.4 NNE 7 8 1018.2 - 0.0 - - - - - - -
20/05:30am 10.2 NNE 6 7 1018.1 - 0.0 - - - - - - -
20/05:00am 10.8 NNE 6 6 1018.0 - 0.0 - - - - - - -
20/04:30am 10.8 NNE 5 6 1018.0 - 0.0 - - - - - - -
20/04:00am 11.4 NNE 6 8 1017.9 - 0.0 - - - - - - -
20/03:30am 11.7 NE 6 7 1017.9 - 0.0 - - - - - - -
20/03:00am 11.9 NE 6 7 1018.1 - 0.0 - - - - - - -
20/02:30am 12.2 NE 6 7 1018.3 - 0.0 - - - - - - -
20/02:00am 12.2 NE 5 6 1018.6 - 0.0 - - - - - - -
20/01:30am 13.3 NE 5 5 1018.8 - 0.0 - - - - - - -
20/01:00am 14.9 ENE 5 7 1019.0 - 0.0 - - - - - - -
20/12:30am 15.6 E 6 7 1019.2 - 0.0 - - - - - - -
20/12:00am 15.8 E 7 10 1019.5 - 0.0 - - - - - - -
 
Date/Time
CDT
Temp
°C
Wind Pressure Rain since
9am
mm
Weather Cloud Vis
km
Sea
Height
m
Swell
Dir  Spd
kts
Gust
kts
hPa Trend Height
m
Period
s
Dir
19/11:30pm 16.3 E 7 9 1019.7 - 0.0 - - - - - - -
19/11:00pm 16.6 E 7 9 1020.0 - 0.0 - - - - - - -
19/10:30pm 17.0 ESE 7 9 1020.0 - 0.0 - - - - - - -
19/10:00pm 17.3 ESE 7 10 1019.9 - 0.0 - - - - - - -
19/09:30pm 17.3 ESE 7 12 1019.8 - 0.0 - - - - - - -
19/09:00pm 17.6 ESE 8 11 1019.6 - 0.0 - - - - - - -
19/08:30pm 17.8 ESE 8 12 1019.4 - 0.0 - - - - - - -
19/08:00pm 18.4 ESE 8 12 1019.4 - 0.0 - - - - - - -
19/07:30pm 19.2 ESE 9 14 1019.5 - 0.0 - - - - - - -
19/07:00pm 19.9 SE 10 15 1019.5 - 0.0 - - - - - - -
19/06:30pm 20.2 SE 10 17 1019.4 - 0.0 - - - - - - -
19/06:00pm 21.0 SE 10 15 1019.6 - 0.0 - - - - - - -
19/05:30pm 20.7 SSE 10 15 1019.6 - 0.0 Fine Mostly clear 40 - - - -
19/05:00pm 21.2 SE 10 18 1019.6 - 0.0 - - - - - - -
19/04:30pm 20.9 SE 12 18 1019.7 - 0.0 - - - - - - -
19/04:00pm 22.0 SSE 10 16 1020.1 - 0.0 - - - - - - -
19/03:30pm 22.0 SE 10 16 1020.3 - 0.0 - - - - - - -
19/03:00pm 21.4 ESE 11 17 1020.7 - 0.0 - - - - - - -
19/02:30pm 21.3 SE 11 17 1020.9 - 0.0 - - - - - - -
19/02:00pm 21.2 ESE 9 15 1020.9 - 0.0 - - - - - - -
19/01:30pm 20.9 SE 9 15 1021.4 - 0.0 - - - - - - -
19/01:00pm 21.9 SE 8 12 1021.9 - 0.0 - - - - - - -
19/12:30pm 21.2 SE 9 15 1022.1 - 0.0 - - - - - - -
19/12:00pm 21.3 SE 8 12 1022.5 - 0.0 - - - - - - -
19/11:30am 20.8 SSE 7 12 1022.9 - 0.0 Fine Mostly clear 40 - - - -
19/11:00am 20.6 SE 7 10 1023.0 - 0.0 - - - - - - -
19/10:30am 19.2 SE 7 10 1023.0 - 0.0 - - - - - - -
19/10:00am 18.7 SE 7 9 1023.1 - 0.0 - - - - - - -
19/09:30am 18.3 SE 7 10 1022.9 - 0.0 - - - - - - -
19/09:00am 17.8 ESE 7 11 1022.5 - 0.0 - - - - - - -
19/08:30am 17.6 ESE 8 10 1022.2 - 0.0 - - - - - - -
19/08:00am 17.3 SE 5 8 1022.1 - 0.0 - - - - - - -
19/07:30am 17.2 SSE 6 9 1021.8 - 0.0 - - - - - - -
19/07:00am 17.2 SE 6 9 1021.7 - 0.0 - - - - - - -
19/06:30am 16.9 SE 5 7 1021.6 - 0.0 - - - - - - -
19/06:00am 16.8 SE 5 6 1021.5 - 0.0 - - - - - - -
19/05:30am 16.8 SE 7 11 1021.5 - 0.0 - - - - - - -
19/05:00am 16.4 SE 6 8 1021.5 - 0.0 - - - - - - -
19/04:30am 16.2 SE 6 8 1021.5 - 0.0 - - - - - - -
19/04:00am 16.6 SE 7 11 1021.5 - 0.0 - - - - - - -
19/03:30am 16.1 SE 6 8 1021.7 - 0.0 - - - - - - -
19/03:00am 16.7 SE 7 10 1021.9 - 0.0 - - - - - - -
19/02:30am 17.3 SE 8 13 1022.2 - 0.0 - - - - - - -
19/02:00am 17.7 SE 8 11 1022.9 - 0.0 - - - - - - -
19/01:30am 17.6 SE 6 9 1023.2 - 0.0 - - - - - - -
19/01:00am 17.6 SE 9 13 1023.6 - 0.0 - - - - - - -
19/12:30am 17.7 SE 8 13 1023.6 - 0.0 - - - - - - -
19/12:00am 17.7 SSE 9 15 1023.7 - 0.0 - - - - - - -
 
Date/Time
CDT
Temp
°C
Wind Pressure Rain since
9am
mm
Weather Cloud Vis
km
Sea
Height
m
Swell
Dir  Spd
kts
Gust
kts
hPa Trend Height
m
Period
s
Dir
18/11:30pm 17.7 SSE 9 14 1023.6 - 0.0 - - - - - - -
18/11:00pm 17.6 SSE 10 15 1023.6 - 0.0 - - - - - - -
18/10:30pm 17.5 SSE 9 16 1023.6 - 0.0 - - - - - - -
18/10:00pm 17.7 SSE 9 14 1023.5 - 0.0 - - - - - - -
18/09:30pm 17.1 SSE 8 13 1023.5 - 0.0 - - - - - - -
18/09:00pm 17.7 SSE 9 14 1023.3 - 0.0 - - - - - - -
18/08:30pm 18.0 SSE 11 16 1023.0 - 0.0 - - - - - - -
18/08:00pm 18.3 SSE 10 15 1022.9 - 0.0 - - - - - - -
18/07:30pm 19.1 SSE 11 17 1022.5 - 0.0 - - - - - - -
18/07:00pm 19.8 SSE 11 18 1022.2 - 0.0 - - - - - - -
18/06:30pm 20.5 S 11 18 1022.4 - 0.0 - - - - - - -
18/06:00pm 20.9 S 12 17 1022.2 - 0.0 - - - - - - -
18/05:30pm 21.1 SSE 13 18 1022.2 - 0.0 Fine Mostly clear 40 - - - -
18/05:00pm 21.6 SSE 13 20 1022.2 - 0.0 - - - - - - -
18/04:30pm 21.4 S 12 19 1022.2 - 0.0 - - - - - - -
18/04:00pm 22.0 SSE 12 18 1022.6 - 0.0 - - - - - - -

Other Formats:

Comma delimited format used in spreadsheet applications
http://www.bom.gov.au/fwo/IDS60701/IDS60701.94647.axf

JavaScript Object Notation format (JSON) in row-major order
http://www.bom.gov.au/fwo/IDS60701/IDS60701.94647.json